createdAt,value
2018-11-21T00:00:20.993Z,100343.45
2018-11-21T00:02:50.954Z,100347.78
2018-11-21T00:05:20.336Z,100355.08
2018-11-21T00:07:51.137Z,100355.45
2018-11-21T00:10:21.227Z,100350.25
2018-11-21T00:12:54.274Z,100341.80
2018-11-21T00:15:25.288Z,100355.03
2018-11-21T00:17:58.387Z,100349.69
2018-11-21T00:20:31.909Z,100352.37
2018-11-21T00:23:17.023Z,100351.11
2018-11-21T00:25:57.705Z,100350.53
2018-11-21T00:28:48.350Z,100339.39
2018-11-21T00:31:15.572Z,100346.93
2018-11-21T00:33:52.126Z,100352.00
2018-11-21T00:36:24.531Z,100341.59
2018-11-21T00:38:56.667Z,100340.83
2018-11-21T00:41:28.074Z,100336.92
2018-11-21T00:44:08.880Z,100344.73
2018-11-21T00:46:39.203Z,100345.77
2018-11-21T00:49:09.627Z,100349.88
2018-11-21T00:51:44.608Z,100353.98
2018-11-21T00:54:15.289Z,100356.32
2018-11-21T00:56:46.992Z,100368.45
2018-11-21T00:59:18.528Z,100357.25
2018-11-21T01:04:37.221Z,100356.97
2018-11-21T01:07:09.471Z,100357.89
2018-11-21T01:09:43.674Z,100352.69
2018-11-21T01:12:15.001Z,100349.42
2018-11-21T01:14:46.858Z,100361.42
2018-11-21T01:17:18.281Z,100352.16
2018-11-21T01:19:54.749Z,100362.89
2018-11-21T01:23:02.652Z,100362.98
2018-11-21T01:25:39.812Z,100364.45
2018-11-21T01:28:10.210Z,100367.13
2018-11-21T01:30:41.000Z,100364.64
2018-11-21T01:33:11.269Z,100363.34
2018-11-21T01:35:51.601Z,100363.48
2018-11-21T01:38:23.350Z,100360.36
2018-11-21T01:40:55.185Z,100359.16
2018-11-21T01:43:26.637Z,100357.88
2018-11-21T01:45:57.060Z,100360.67
2018-11-21T01:48:26.333Z,100364.22
2018-11-21T01:50:56.794Z,100371.84
2018-11-21T01:53:27.595Z,100364.88
2018-11-21T01:55:58.559Z,100380.16
2018-11-21T01:58:28.462Z,100372.69
2018-11-21T02:00:58.386Z,100373.07
2018-11-21T02:03:28.320Z,100377.91
2018-11-21T02:05:58.282Z,100370.80
2018-11-21T02:08:28.249Z,100375.34
2018-11-21T02:10:59.161Z,100359.59
2018-11-21T02:13:29.005Z,100364.09
2018-11-21T02:15:59.344Z,100360.23
2018-11-21T02:18:29.533Z,100354.02
2018-11-21T02:20:59.430Z,100354.95
2018-11-21T02:23:29.999Z,100355.80
2018-11-21T02:26:01.297Z,100350.25
2018-11-21T02:28:31.231Z,100357.70
2018-11-21T02:31:01.710Z,100358.87
2018-11-21T02:33:32.639Z,100349.81
2018-11-21T02:36:03.057Z,100349.41
2018-11-21T02:38:35.843Z,100339.77
2018-11-21T02:41:03.845Z,100358.98
2018-11-21T02:43:35.233Z,100358.67
2018-11-21T02:46:05.529Z,100365.19
2018-11-21T02:48:37.094Z,100361.59
2018-11-21T02:51:08.175Z,100372.21
2018-11-21T02:53:40.079Z,100365.59
2018-11-21T02:56:10.877Z,100382.27
2018-11-21T02:58:40.894Z,100380.45
2018-11-21T03:01:11.966Z,100368.30
2018-11-21T03:03:42.567Z,100378.08
2018-11-21T03:06:13.094Z,100383.84
2018-11-21T03:09:03.208Z,100376.84
2018-11-21T03:12:05.850Z,100385.38
2018-11-21T03:14:37.040Z,100383.63
2018-11-21T03:17:08.181Z,100385.89
2018-11-21T03:19:39.666Z,100386.50
2018-11-21T03:22:10.075Z,100380.14
2018-11-21T03:24:40.078Z,100375.34
2018-11-21T03:27:10.013Z,100383.30
2018-11-21T03:29:40.089Z,100382.00
2018-11-21T03:32:10.502Z,100384.98
2018-11-21T03:34:41.824Z,100383.30
2018-11-21T03:37:12.748Z,100383.23
2018-11-21T03:39:43.705Z,100385.77
2018-11-21T03:42:13.996Z,100382.31
2018-11-21T03:44:49.509Z,100375.48
2018-11-21T03:47:21.302Z,100378.12
2018-11-21T03:49:52.258Z,100387.97
2018-11-21T03:52:26.529Z,100378.84
2018-11-21T03:54:57.752Z,100385.91
2018-11-21T03:57:28.890Z,100390.20
2018-11-21T04:00:02.388Z,100391.05
2018-11-21T04:02:32.555Z,100394.62
2018-11-21T04:05:11.916Z,100379.63
2018-11-21T04:07:45.857Z,100379.56
2018-11-21T04:10:16.334Z,100391.58
2018-11-21T04:12:48.970Z,100386.88
2018-11-21T04:15:23.314Z,100380.56
2018-11-21T04:17:54.098Z,100392.67
2018-11-21T04:20:26.310Z,100389.70
2018-11-21T04:23:02.779Z,100405.34
2018-11-21T04:25:42.447Z,100404.03
2018-11-21T04:28:11.791Z,100402.73
2018-11-21T04:30:46.643Z,100415.64
2018-11-21T04:33:18.632Z,100411.45
2018-11-21T04:35:57.732Z,100419.14
2018-11-21T04:38:29.805Z,100415.36
2018-11-21T04:41:00.977Z,100425.03
2018-11-21T04:43:34.148Z,100417.00
2018-11-21T04:46:06.974Z,100416.66
2018-11-21T04:48:37.821Z,100426.97
2018-11-21T04:51:09.292Z,100418.81
2018-11-21T04:53:43.123Z,100423.20
2018-11-21T04:56:20.273Z,100425.16
2018-11-21T04:59:01.029Z,100428.66
2018-11-21T05:01:32.820Z,100428.95
2018-11-21T05:04:04.860Z,100423.00
2018-11-21T05:06:35.814Z,100426.34
2018-11-21T05:09:15.328Z,100431.62
2018-11-21T05:11:48.156Z,100425.79
2018-11-21T05:14:18.704Z,100430.88
2018-11-21T05:16:50.729Z,100426.50
2018-11-21T05:19:22.454Z,100432.44
2018-11-21T05:21:55.363Z,100440.16
2018-11-21T05:24:31.205Z,100447.20
2018-11-21T05:27:03.515Z,100445.88
2018-11-21T05:29:38.984Z,100449.13
2018-11-21T05:32:17.801Z,100463.56
2018-11-21T05:34:46.933Z,100460.23
2018-11-21T05:37:18.166Z,100463.36
2018-11-21T05:39:51.717Z,100464.67
2018-11-21T05:42:23.074Z,100466.83
2018-11-21T05:44:55.222Z,100472.73
2018-11-21T05:47:28.759Z,100463.02
2018-11-21T05:50:07.844Z,100476.65
2018-11-21T05:53:01.493Z,100474.04
2018-11-21T05:55:31.636Z,100482.92
2018-11-21T05:58:03.396Z,100475.75
2018-11-21T06:00:32.801Z,100479.53
2018-11-21T06:03:09.037Z,100488.38
2018-11-21T06:05:43.296Z,100498.72
2018-11-21T06:08:13.608Z,100493.02
2018-11-21T06:10:43.262Z,100492.44
2018-11-21T06:13:13.006Z,100507.30
2018-11-21T06:15:43.567Z,100497.52
2018-11-21T06:18:13.811Z,100492.50
2018-11-21T06:20:50.344Z,100505.61
2018-11-21T06:23:22.303Z,100520.38
2018-11-21T06:25:58.897Z,100515.53
2018-11-21T06:28:35.307Z,100526.34
2018-11-21T06:31:07.099Z,100528.13
2018-11-21T06:33:38.745Z,100535.09
2018-11-21T06:36:11.928Z,100536.27
2018-11-21T06:38:41.364Z,100536.33
2018-11-21T06:41:17.226Z,100538.87
2018-11-21T06:43:50.474Z,100541.83
2018-11-21T06:46:19.097Z,100549.20
2018-11-21T06:48:51.900Z,100549.14
2018-11-21T06:51:27.255Z,100556.11
2018-11-21T06:54:00.507Z,100561.84
2018-11-21T06:56:36.141Z,100563.58
2018-11-21T06:59:03.583Z,100569.93
2018-11-21T07:01:33.355Z,100563.64
2018-11-21T07:04:11.794Z,100570.44
2018-11-21T07:06:42.916Z,100579.08
2018-11-21T07:09:14.449Z,100568.22
2018-11-21T07:11:47.367Z,100567.32
2018-11-21T07:14:20.839Z,100567.63
2018-11-21T07:16:52.785Z,100563.78
2018-11-21T07:19:29.048Z,100570.81
2018-11-21T07:22:03.077Z,100567.84
2018-11-21T07:24:34.325Z,100574.02
2018-11-21T07:27:05.649Z,100574.88
2018-11-21T07:30:00.267Z,100578.80
2018-11-21T07:32:31.302Z,100578.14
2018-11-21T07:35:27.057Z,100581.75
2018-11-21T07:38:04.727Z,100583.88
2018-11-21T07:40:35.919Z,100588.28
2018-11-21T07:43:06.781Z,100589.88
2018-11-21T07:45:37.898Z,100590.55
2018-11-21T07:48:08.848Z,100590.10
2018-11-21T07:50:39.917Z,100596.31
2018-11-21T07:53:10.452Z,100590.82
2018-11-21T07:55:41.944Z,100596.31
2018-11-21T07:58:14.358Z,100595.32
2018-11-21T08:01:18.212Z,100597.17
2018-11-21T08:04:13.090Z,100603.49
2018-11-21T08:07:02.757Z,100602.05
2018-11-21T08:09:54.387Z,100603.63
2018-11-21T08:12:54.240Z,100608.58
2018-11-21T08:15:54.339Z,100603.45
2018-11-21T08:18:54.622Z,100606.24
2018-11-21T08:21:53.938Z,100602.97
2018-11-21T08:24:43.320Z,100618.20
2018-11-21T08:27:39.399Z,100613.01
2018-11-21T08:30:12.431Z,100613.94
2018-11-21T08:32:52.320Z,100613.66
2018-11-21T08:35:26.987Z,100621.91
2018-11-21T08:38:00.322Z,100625.61
2018-11-21T08:40:31.550Z,100619.02
2018-11-21T08:43:46.372Z,100624.66
2018-11-21T08:46:19.848Z,100621.08
2018-11-21T08:48:56.140Z,100628.05
2018-11-21T08:51:31.719Z,100631.04
2018-11-21T08:54:08.894Z,100624.66
2018-11-21T08:56:54.291Z,100634.44
2018-11-21T08:59:29.414Z,100630.80
2018-11-21T09:02:12.342Z,100638.36
2018-11-21T09:04:50.671Z,100632.73
2018-11-21T09:07:33.111Z,100642.34
2018-11-21T09:10:01.656Z,100639.66
2018-11-21T09:12:32.040Z,100641.36
2018-11-21T09:15:03.558Z,100637.75
2018-11-21T09:17:33.955Z,100637.56
2018-11-21T09:20:04.206Z,100647.84
2018-11-21T09:22:36.293Z,100651.27
2018-11-21T09:25:07.395Z,100650.62
2018-11-21T09:27:37.769Z,100654.50
2018-11-21T09:30:14.777Z,100662.78
2018-11-21T09:32:54.513Z,100658.94
2018-11-21T09:35:57.557Z,100660.83
2018-11-21T09:38:35.579Z,100662.65
2018-11-21T09:41:21.429Z,100660.48
2018-11-21T09:47:00.493Z,100661.86
2018-11-21T09:49:50.242Z,100658.70
2018-11-21T09:52:39.165Z,100673.91
2018-11-21T09:58:09.425Z,100668.97
2018-11-21T10:01:35.739Z,100663.81
2018-11-21T10:04:18.987Z,100667.28
2018-11-21T10:06:57.468Z,100662.52
2018-11-21T10:09:43.533Z,100670.20
2018-11-21T10:12:38.515Z,100665.13
2018-11-21T10:15:28.546Z,100663.95
2018-11-21T10:17:56.459Z,100661.14
2018-11-21T10:20:52.585Z,100661.55
2018-11-21T10:24:27.126Z,100666.77
2018-11-21T10:29:54.266Z,100663.16
2018-11-21T10:32:25.554Z,100663.56
2018-11-21T10:35:17.596Z,100664.35
2018-11-21T10:45:04.889Z,100673.74
2018-11-21T10:47:50.039Z,100673.23
2018-11-21T10:52:13.381Z,100676.50
2018-11-21T10:53:45.473Z,100670.20
2018-11-21T10:56:13.572Z,100674.27
2018-11-21T10:59:04.525Z,100675.91
2018-11-21T11:02:21.574Z,100683.41
2018-11-21T11:05:48.905Z,100686.66
2018-11-21T11:08:45.568Z,100686.52
2018-11-21T11:12:15.761Z,100684.36
2018-11-21T11:15:11.638Z,100693.70
2018-11-21T11:18:26.539Z,100680.72
2018-11-21T11:21:53.127Z,100684.98
2018-11-21T11:25:01.398Z,100687.84
2018-11-21T11:31:17.523Z,100678.83
2018-11-21T11:34:05.988Z,100688.45
2018-11-21T11:37:20.808Z,100687.87
2018-11-21T11:40:12.897Z,100684.33
2018-11-21T11:43:23.480Z,100677.66
2018-11-21T11:46:34.242Z,100681.06
2018-11-21T11:49:28.829Z,100687.98
2018-11-21T11:52:28.249Z,100689.55
2018-11-21T11:55:33.469Z,100684.08
2018-11-21T11:58:29.666Z,100685.19
2018-11-21T12:01:44.293Z,100691.13
2018-11-21T12:04:44.462Z,100686.93
2018-11-21T12:07:53.981Z,100682.48
2018-11-21T12:10:41.350Z,100687.98
2018-11-21T12:14:07.147Z,100686.95
2018-11-21T12:17:06.808Z,100676.21
2018-11-21T12:20:06.521Z,100689.02
2018-11-21T12:23:12.293Z,100680.45
2018-11-21T12:26:21.915Z,100681.59
2018-11-21T12:29:28.239Z,100687.20
2018-11-21T12:32:33.396Z,100685.30
2018-11-21T12:35:42.722Z,100684.80
2018-11-21T12:41:16.696Z,100683.75
2018-11-21T12:44:11.781Z,100676.09
2018-11-21T12:47:08.176Z,100681.99
2018-11-21T12:50:05.888Z,100680.80
2018-11-21T12:53:32.035Z,100676.16
2018-11-21T12:56:58.094Z,100676.63
2018-11-21T13:00:24.756Z,100670.23
2018-11-21T13:03:32.285Z,100665.79
2018-11-21T13:06:59.811Z,100668.77
2018-11-21T13:09:32.307Z,100669.55
2018-11-21T13:12:31.077Z,100674.19
2018-11-21T13:15:43.223Z,100664.47
2018-11-21T13:18:33.923Z,100671.77
2018-11-21T13:21:35.801Z,100674.40
2018-11-21T13:24:27.964Z,100675.17
2018-11-21T13:28:00.563Z,100680.91
2018-11-21T13:30:53.455Z,100679.10
2018-11-21T13:34:00.294Z,100683.95
2018-11-21T13:36:57.818Z,100683.92
2018-11-21T13:39:49.782Z,100686.94
2018-11-21T13:42:58.595Z,100683.02
2018-11-21T13:46:11.882Z,100687.22
2018-11-21T13:49:00.385Z,100677.98
2018-11-21T13:52:16.159Z,100684.19
2018-11-21T13:54:58.868Z,100688.11
2018-11-21T13:57:53.006Z,100675.84
2018-11-21T14:00:31.005Z,100679.28
2018-11-21T14:03:14.823Z,100681.85
2018-11-21T14:07:29.672Z,100686.56
2018-11-21T14:10:07.827Z,100692.48
2018-11-21T14:13:10.215Z,100694.97
2018-11-21T14:15:53.569Z,100700.41
2018-11-21T14:18:39.576Z,100698.55
2018-11-21T14:21:07.456Z,100704.27
2018-11-21T14:23:45.182Z,100680.99
2018-11-21T14:26:19.774Z,100712.06
2018-11-21T14:28:54.865Z,100707.56
2018-11-21T14:31:28.661Z,100707.94
2018-11-21T14:34:27.165Z,100711.48
2018-11-21T14:37:11.766Z,100704.30
2018-11-21T14:39:53.469Z,100716.05
2018-11-21T14:42:29.857Z,100713.06
2018-11-21T14:45:07.718Z,100721.27
2018-11-21T14:47:41.397Z,100711.17
2018-11-21T14:50:22.478Z,100719.97
2018-11-21T14:55:55.268Z,100732.00
2018-11-21T14:58:26.236Z,100729.17
2018-11-21T15:00:58.684Z,100733.03
2018-11-21T15:03:29.242Z,100727.94
2018-11-21T15:05:58.739Z,100738.75
2018-11-21T15:08:36.062Z,100733.16
2018-11-21T15:11:06.430Z,100735.48
2018-11-21T15:13:36.594Z,100744.40
2018-11-21T15:16:06.743Z,100747.08
2018-11-21T15:18:36.658Z,100747.91
2018-11-21T15:21:16.289Z,100748.96
2018-11-21T15:23:40.285Z,100747.25
2018-11-21T15:26:09.759Z,100754.55
2018-11-21T15:28:42.987Z,100759.20
2018-11-21T15:31:15.814Z,100760.81
2018-11-21T15:33:45.735Z,100754.91
2018-11-21T15:36:16.063Z,100747.02
2018-11-21T15:38:45.523Z,100751.17
2018-11-21T15:41:15.409Z,100746.88
2018-11-21T15:43:45.271Z,100757.11
2018-11-21T15:46:15.461Z,100758.42
2018-11-21T15:48:45.325Z,100748.83
2018-11-21T15:51:15.238Z,100758.34
2018-11-21T15:53:47.691Z,100757.45
2018-11-21T15:56:18.515Z,100766.19
2018-11-21T15:58:49.520Z,100771.41
2018-11-21T16:01:19.304Z,100762.78
2018-11-21T16:03:50.331Z,100767.34
2018-11-21T16:06:24.631Z,100766.59
2018-11-21T16:09:01.918Z,100765.08
2018-11-21T16:11:32.467Z,100773.22
2018-11-21T16:14:02.253Z,100775.45
2018-11-21T16:16:32.932Z,100771.03
2018-11-21T16:19:03.685Z,100772.92
2018-11-21T16:21:34.010Z,100775.62
2018-11-21T16:24:40.328Z,100776.70
2018-11-21T16:27:10.188Z,100779.52
2018-11-21T16:29:40.348Z,100782.42
2018-11-21T16:32:10.927Z,100789.26
2018-11-21T16:34:40.703Z,100788.32
2018-11-21T16:37:11.107Z,100790.55
2018-11-21T16:39:42.279Z,100791.05
2018-11-21T16:42:12.036Z,100792.73
2018-11-21T16:44:41.873Z,100798.30
2018-11-21T16:47:11.741Z,100805.51
2018-11-21T16:49:41.829Z,100803.03
2018-11-21T16:52:12.830Z,100809.09
2018-11-21T16:54:43.014Z,100805.84
2018-11-21T16:57:13.548Z,100809.25
2018-11-21T16:59:43.772Z,100810.56
2018-11-21T17:02:13.311Z,100808.59
2018-11-21T17:04:43.529Z,100813.59
2018-11-21T17:07:13.438Z,100817.81
2018-11-21T17:09:47.209Z,100819.41
2018-11-21T17:12:17.600Z,100820.49
2018-11-21T17:14:47.609Z,100826.52
2018-11-21T17:17:17.024Z,100828.99
2018-11-21T17:19:46.520Z,100834.86
2018-11-21T17:22:16.037Z,100828.45
2018-11-21T17:24:46.549Z,100831.89
2018-11-21T17:27:18.026Z,100834.31
2018-11-21T17:29:53.747Z,100828.55
2018-11-21T17:32:18.603Z,100837.94
2018-11-21T17:34:48.336Z,100833.04
2018-11-21T17:37:19.350Z,100838.61
2018-11-21T17:39:51.166Z,100831.86
2018-11-21T17:42:23.948Z,100841.16
2018-11-21T17:44:53.747Z,100843.67
2018-11-21T17:47:23.821Z,100846.06
2018-11-21T17:49:54.076Z,100844.53
2018-11-21T17:52:23.922Z,100839.53
2018-11-21T17:54:54.089Z,100844.53
2018-11-21T17:57:27.952Z,100845.33
2018-11-21T17:59:54.873Z,100851.50
2018-11-21T18:02:25.367Z,100852.14
2018-11-21T18:04:55.561Z,100849.44
2018-11-21T18:07:26.137Z,100848.95
2018-11-21T18:09:56.350Z,100848.09
2018-11-21T18:12:29.136Z,100858.48
2018-11-21T18:15:01.372Z,100864.63
2018-11-21T18:17:31.229Z,100863.89
2018-11-21T18:20:01.483Z,100863.77
2018-11-21T18:22:31.448Z,100866.11
2018-11-21T18:25:02.299Z,100862.17
2018-11-21T18:27:36.013Z,100856.51
2018-11-21T18:30:09.448Z,100863.03
2018-11-21T18:32:39.690Z,100860.80
2018-11-21T18:35:16.878Z,100868.86
2018-11-21T18:37:50.534Z,100864.37
2018-11-21T18:40:23.136Z,100868.58
2018-11-21T18:42:55.392Z,100873.73
2018-11-21T18:45:32.365Z,100875.08
2018-11-21T18:48:03.130Z,100867.80
2018-11-21T18:50:33.294Z,100869.78
2018-11-21T18:53:05.132Z,100879.61
2018-11-21T18:55:37.459Z,100873.00
2018-11-21T18:58:57.689Z,100877.27
2018-11-21T19:01:27.725Z,100874.78
2018-11-21T19:03:58.088Z,100879.30
2018-11-21T19:06:27.943Z,100884.48
2018-11-21T19:08:58.267Z,100879.09
2018-11-21T19:11:28.720Z,100885.61
2018-11-21T19:13:58.986Z,100884.83
2018-11-21T19:16:28.787Z,100889.53
2018-11-21T19:18:58.638Z,100882.24
2018-11-21T19:21:28.125Z,100882.66
2018-11-21T19:23:58.714Z,100885.14
2018-11-21T19:26:28.112Z,100884.77
2018-11-21T19:28:57.841Z,100886.45
2018-11-21T19:31:29.779Z,100881.31
2018-11-21T19:33:57.697Z,100883.45
2018-11-21T19:36:28.141Z,100887.84
2018-11-21T19:38:58.418Z,100889.92
2018-11-21T19:41:29.217Z,100893.94
2018-11-21T19:44:00.390Z,100896.34
2018-11-21T19:46:30.662Z,100894.28
2018-11-21T19:49:00.111Z,100893.48
2018-11-21T19:51:30.092Z,100897.66
2018-11-21T19:54:00.043Z,100895.89
2018-11-21T19:56:29.650Z,100891.06
2018-11-21T19:58:59.977Z,100891.70
2018-11-21T20:01:29.847Z,100895.70
2018-11-21T20:04:00.600Z,100890.60
2018-11-21T20:06:30.147Z,100888.23
2018-11-21T20:09:00.074Z,100892.38
2018-11-21T20:11:30.331Z,100895.64
2018-11-21T20:14:00.189Z,100896.86
2018-11-21T20:16:30.068Z,100885.27
2018-11-21T20:18:59.891Z,100889.23
2018-11-21T20:21:30.234Z,100893.66
2018-11-21T20:23:59.618Z,100893.89
2018-11-21T20:26:29.499Z,100895.28
2018-11-21T20:29:00.830Z,100893.89
2018-11-21T20:31:30.634Z,100900.80
2018-11-21T20:34:01.462Z,100901.23
2018-11-21T20:36:34.238Z,100895.58
2018-11-21T20:39:04.540Z,100893.03
2018-11-21T20:41:35.386Z,100884.46
2018-11-21T20:44:06.132Z,100883.04
2018-11-21T20:46:36.615Z,100873.23
2018-11-21T20:49:11.286Z,100885.38
2018-11-21T20:51:37.013Z,100888.07
2018-11-21T20:54:06.505Z,100881.73
2018-11-21T20:56:36.785Z,100877.25
2018-11-21T20:59:06.817Z,100888.00
2018-11-21T21:01:36.902Z,100895.66
2018-11-21T21:04:07.287Z,100891.11
2018-11-21T21:06:37.646Z,100894.71
2018-11-21T21:09:12.816Z,100884.39
2018-11-21T21:11:43.350Z,100882.67
2018-11-21T21:14:12.765Z,100885.88
2018-11-21T21:16:42.584Z,100884.89
2018-11-21T21:19:12.383Z,100882.86
2018-11-21T21:21:42.663Z,100881.31
2018-11-21T21:24:12.933Z,100881.91
2018-11-21T21:26:42.787Z,100887.14
2018-11-21T21:29:12.761Z,100890.73
2018-11-21T21:32:01.487Z,100891.16
2018-11-21T21:34:31.465Z,100894.33
2018-11-21T21:37:01.696Z,100889.41
2018-11-21T21:39:31.675Z,100887.35
2018-11-21T21:42:01.474Z,100887.52
2018-11-21T21:44:31.780Z,100899.85
2018-11-21T21:47:01.256Z,100909.53
2018-11-21T21:49:31.174Z,100905.27
2018-11-21T21:52:01.224Z,100899.61
2018-11-21T21:54:31.459Z,100906.38
2018-11-21T21:57:04.005Z,100900.16
2018-11-21T21:59:32.105Z,100893.64
2018-11-21T22:02:02.488Z,100908.79
2018-11-21T22:04:33.094Z,100911.09
2018-11-21T22:07:02.582Z,100909.73
2018-11-21T22:09:33.627Z,100914.80
2018-11-21T22:12:06.731Z,100913.42
2018-11-21T22:14:36.299Z,100911.20
2018-11-21T22:17:06.046Z,100913.81
2018-11-21T22:19:35.895Z,100907.34
2018-11-21T22:22:06.818Z,100911.50
2018-11-21T22:24:38.229Z,100913.41
2018-11-21T22:27:08.517Z,100911.80
2018-11-21T22:29:39.024Z,100917.44
2018-11-21T22:32:10.037Z,100917.02
2018-11-21T22:34:39.994Z,100915.33
2018-11-21T22:37:09.546Z,100916.02
2018-11-21T22:39:40.046Z,100920.17
2018-11-21T22:42:11.286Z,100913.41
2018-11-21T22:44:43.470Z,100922.23
2018-11-21T22:47:12.904Z,100918.52
2018-11-21T22:49:51.007Z,100919.48
2018-11-21T22:52:22.800Z,100921.34
2018-11-21T22:54:52.686Z,100917.28
2018-11-21T22:57:25.059Z,100917.89
2018-11-21T23:00:02.925Z,100917.63
2018-11-21T23:02:38.002Z,100921.53
2018-11-21T23:05:09.733Z,100920.64
2018-11-21T23:07:41.261Z,100922.00
2018-11-21T23:10:13.402Z,100929.02
2018-11-21T23:12:45.461Z,100920.72
2018-11-21T23:15:15.649Z,100923.75
2018-11-21T23:17:49.579Z,100925.00
2018-11-21T23:20:20.315Z,100917.73
2018-11-21T23:22:51.364Z,100919.03
2018-11-21T23:25:21.557Z,100920.64
2018-11-21T23:27:52.257Z,100919.95
2018-11-21T23:30:21.754Z,100920.15
2018-11-21T23:32:53.036Z,100923.33
2018-11-21T23:35:25.576Z,100912.02
2018-11-21T23:37:55.855Z,100912.83
2018-11-21T23:40:25.760Z,100917.23
2018-11-21T23:42:56.608Z,100914.52
2018-11-21T23:45:26.745Z,100924.06
2018-11-21T23:47:56.890Z,100917.12
2018-11-21T23:50:26.784Z,100918.04
2018-11-21T23:52:57.330Z,100918.17
2018-11-21T23:55:27.875Z,100923.51
2018-11-21T23:57:58.066Z,100930.45
